Norwegian Epic — C6XP7 — position and weather

sailwx.info

Track history (hours):
 
Tides and Currents Weather Stations Pressure Air Temp Water Temp Dewpoint Dewpoint Depression Visibility Wind Speed Wind Dir Waves Ship Positions

Norwegian Epic

Last reported at 2016-Nov-30 10:08 UTC. Time now 2016-Dec-08 06:00 UTC.
Position N 18°15' W 064°54'.

Length 329 m; draft 9.2 m.

Type: Passenger vessel. MMSI: 311018500.

Date/timePositionNaut miles runAvg speedWind from/ knotsBaromVisibWave heightAir tempDewpointWater temp
2016-Nov-30 10:08N 18°15' W 064°54'5 8.2
2016-Nov-30 09:33N 18°11' W 064°53'26 2.9
2016-Nov-30 00:31N 18°15' W 064°26'7 7.6
2016-Nov-29 23:33N 18°20' W 064°32'7 6.6
2016-Nov-29 22:33N 18°25' W 064°36'0 0.0
2016-Nov-29 10:20N 18°25' W 064°36'4 5.7
2016-Nov-29 09:33N 18°25' W 064°32'9 9.3
2016-Nov-29 08:33N 18°33' W 064°35'1313.3
2016-Nov-29 07:33N 18°41' W 064°47'1413.6
2016-Nov-29 06:33N 18°49' W 064°58'  
2016-Nov-26 09:29N 28°14' W 080°21'  
2016-Nov-21 21:33N 20°31' W 086°57'0 0.0
2016-Nov-21 17:33N 20°31' W 086°57'0 0.0
2016-Nov-21 14:29N 20°31' W 086°57'0 0.0
2016-Nov-21 13:33N 20°31' W 086°57'0 0.0
2016-Nov-21 12:33N 20°31' W 086°57'8 8.2
2016-Nov-21 11:31N 20°39' W 086°55'  
Track history (hours):
 
Tides and Currents Weather Stations Pressure Air Temp Water Temp Dewpoint Dewpoint Depression Visibility Wind Speed Wind Dir Waves Ship Positions

Norwegian Epic

Last reported at 2016-Nov-30 10:08 UTC. Time now 2016-Dec-08 06:00 UTC.
Position N 18°15' W 064°54'.

Length 329 m; draft 9.2 m.

Type: Passenger vessel. MMSI: 311018500.

Date/timePositionNaut miles runAvg speedWind from/ knotsBaromVisibWave heightAir tempDewpointWater temp
2016-Nov-30 10:08N 18°15' W 064°54'5 8.2
2016-Nov-30 09:33N 18°11' W 064°53'26 2.9
2016-Nov-30 00:31N 18°15' W 064°26'7 7.6
2016-Nov-29 23:33N 18°20' W 064°32'7 6.6
2016-Nov-29 22:33N 18°25' W 064°36'0 0.0
2016-Nov-29 10:20N 18°25' W 064°36'4 5.7
2016-Nov-29 09:33N 18°25' W 064°32'9 9.3
2016-Nov-29 08:33N 18°33' W 064°35'1313.3
2016-Nov-29 07:33N 18°41' W 064°47'1413.6
2016-Nov-29 06:33N 18°49' W 064°58'  
2016-Nov-26 09:29N 28°14' W 080°21'  
2016-Nov-21 21:33N 20°31' W 086°57'0 0.0
2016-Nov-21 17:33N 20°31' W 086°57'0 0.0
2016-Nov-21 14:29N 20°31' W 086°57'0 0.0
2016-Nov-21 13:33N 20°31' W 086°57'0 0.0
2016-Nov-21 12:33N 20°31' W 086°57'8 8.2
2016-Nov-21 11:31N 20°39' W 086°55'  

Dump ship's entire track history